Time;durP1;ratioP1;P1;durP2;ratioP2;P2;SDS_P1;SDS_P2;PMS_P1;PMS_P2;Temp;Humidity;BMP_temperature;BMP_pressure;BME280_temperature;BME280_humidity;BME280_pressure;Samples;Min_cycle;Max_cycle;Signal;HPM_P1;HPM_P2
2021/10/29 00:01:25;;;;;;;33.63;20.13;;;;;;;5.46;100.00;98076.81;5059395;28;20222;-63
2021/10/29 00:03:51;;;;;;;28.33;19.77;;;;;;;5.43;100.00;98087.44;5062122;28;20654;-63
2021/10/29 00:06:18;;;;;;;33.03;21.23;;;;;;;5.40;100.00;98076.25;5062696;28;20218;-63
2021/10/29 00:08:44;;;;;;;36.50;22.37;;;;;;;5.36;100.00;98080.81;5056389;28;20243;-63
2021/10/29 00:11:11;;;;;;;36.77;21.07;;;;;;;5.38;100.00;98078.13;5059070;28;20689;-63
2021/10/29 00:13:38;;;;;;;33.30;21.37;;;;;;;5.41;100.00;98072.72;5061648;28;20224;-63
2021/10/29 00:16:05;;;;;;;32.43;20.07;;;;;;;5.37;100.00;98074.63;5062624;28;20705;-63
2021/10/29 00:18:32;;;;;;;29.37;20.37;;;;;;;5.36;100.00;98072.94;5057489;28;20222;-63
2021/10/29 00:20:58;;;;;;;35.77;21.17;;;;;;;5.38;100.00;98078.13;5059131;28;20216;-63
2021/10/29 00:23:27;;;;;;;28.97;19.73;;;;;;;5.35;100.00;98079.13;5057954;28;20223;-63
2021/10/29 00:25:54;;;;;;;33.77;20.40;;;;;;;5.33;100.00;98070.50;5062537;28;20243;-63
2021/10/29 00:28:20;;;;;;;35.17;20.90;;;;;;;5.35;100.00;98068.63;5059294;28;20238;-63
2021/10/29 00:30:48;;;;;;;35.77;21.80;;;;;;;5.38;100.00;98065.84;5059039;28;20214;-63
2021/10/29 00:33:16;;;;;;;36.27;21.70;;;;;;;5.38;100.00;98068.47;5061579;28;20714;-63
2021/10/29 00:35:42;;;;;;;31.83;19.67;;;;;;;5.32;100.00;98068.75;5066159;28;20222;-63
2021/10/29 00:38:09;;;;;;;24.87;17.03;;;;;;;5.23;100.00;98068.38;5063198;28;20219;-63
2021/10/29 00:40:38;;;;;;;28.60;18.07;;;;;;;5.18;100.00;98068.59;5062338;28;20257;-63
2021/10/29 00:43:05;;;;;;;28.20;18.50;;;;;;;5.17;100.00;98064.28;5063992;28;20219;-63
2021/10/29 00:45:31;;;;;;;32.83;20.17;;;;;;;5.23;100.00;98053.50;5064531;28;20218;-63
2021/10/29 00:47:59;;;;;;;36.00;20.87;;;;;;;5.28;100.00;98056.75;5063051;28;20217;-63
2021/10/29 00:50:25;;;;;;;39.23;22.40;;;;;;;5.27;100.00;98060.31;5062477;28;20214;-63
2021/10/29 00:52:52;;;;;;;37.53;21.53;;;;;;;5.27;100.00;98059.44;5063528;28;20215;-63
2021/10/29 00:55:19;;;;;;;34.67;22.03;;;;;;;5.25;100.00;98058.69;5066033;28;20216;-63
2021/10/29 00:57:45;;;;;;;35.70;22.10;;;;;;;5.26;100.00;98055.13;5062888;28;20694;-63
2021/10/29 01:00:13;;;;;;;39.20;22.87;;;;;;;5.19;100.00;98056.38;5053174;28;20236;-63
2021/10/29 01:02:40;;;;;;;34.00;22.47;;;;;;;5.18;100.00;98059.88;5060609;28;20581;-63
2021/10/29 01:05:09;;;;;;;37.10;22.33;;;;;;;5.17;100.00;98059.06;5065722;28;20211;-63
2021/10/29 01:07:36;;;;;;;34.90;21.17;;;;;;;5.03;100.00;98051.03;5063063;28;20212;-63
2021/10/29 01:10:03;;;;;;;29.47;19.53;;;;;;;4.88;100.00;98051.75;5056476;28;20250;-63
2021/10/29 01:12:30;;;;;;;29.73;18.70;;;;;;;4.76;100.00;98056.75;5060634;28;20224;-63
2021/10/29 01:14:58;;;;;;;29.90;18.60;;;;;;;4.69;100.00;98056.16;5065434;28;20310;-63
2021/10/29 01:17:26;;;;;;;29.10;18.70;;;;;;;4.67;100.00;98052.78;5062960;28;20208;-63
2021/10/29 01:19:54;;;;;;;28.97;19.50;;;;;;;4.65;100.00;98054.59;5055539;28;20581;-63
2021/10/29 01:22:23;;;;;;;29.93;19.17;;;;;;;4.68;100.00;98054.47;5062681;28;20217;-63
2021/10/29 01:24:52;;;;;;;28.13;18.70;;;;;;;4.64;100.00;98052.91;5065058;28;20245;-62
2021/10/29 01:27:19;;;;;;;32.23;19.03;;;;;;;4.64;100.00;98055.53;5062245;28;20218;-62
2021/10/29 01:29:48;;;;;;;30.77;19.43;;;;;;;4.57;100.00;98046.28;5061569;28;20296;-62
2021/10/29 01:32:15;;;;;;;31.13;19.77;;;;;;;4.57;100.00;98046.28;5063331;28;20222;-62
2021/10/29 01:34:42;;;;;;;29.30;20.00;;;;;;;4.61;100.00;98042.59;5065458;28;20238;-62
2021/10/29 01:37:10;;;;;;;32.13;19.10;;;;;;;4.58;100.00;98047.97;5058975;28;20243;-62
2021/10/29 01:39:39;;;;;;;32.27;20.03;;;;;;;4.59;100.00;98039.19;5061132;28;20670;-61
2021/10/29 01:42:07;;;;;;;32.77;19.67;;;;;;;4.54;100.00;98038.59;5063350;28;20272;-62
2021/10/29 01:44:34;;;;;;;31.10;20.80;;;;;;;4.53;100.00;98039.47;5064857;28;20248;-62
2021/10/29 01:47:01;;;;;;;29.33;19.70;;;;;;;4.59;100.00;98038.34;5061396;28;20270;-62
2021/10/29 01:49:27;;;;;;;35.30;21.43;;;;;;;4.55;100.00;98037.66;5061035;28;20734;-62
2021/10/29 01:51:54;;;;;;;36.73;21.63;;;;;;;4.59;100.00;98036.56;5063073;28;20585;-62
2021/10/29 01:54:21;;;;;;;33.37;20.13;;;;;;;4.63;100.00;98045.97;5064656;28;20686;-62
2021/10/29 01:56:49;;;;;;;33.43;21.10;;;;;;;4.59;100.00;98044.41;5061623;28;20215;-62
2021/10/29 01:59:15;;;;;;;32.83;21.37;;;;;;;4.55;100.00;98040.28;5060780;28;20219;-62
2021/10/29 02:01:42;;;;;;;36.97;22.37;;;;;;;4.61;100.00;98031.28;5060775;28;20568;-62
2021/10/29 02:04:08;;;;;;;35.47;21.37;;;;;;;4.71;100.00;98030.75;5064773;28;20213;-61
2021/10/29 02:06:35;;;;;;;34.07;21.30;;;;;;;4.72;100.00;98040.34;5062076;28;20221;-61
2021/10/29 02:09:01;;;;;;;37.40;21.80;;;;;;;4.71;100.00;98033.38;5054029;28;20253;-62
2021/10/29 02:11:28;;;;;;;35.77;21.13;;;;;;;4.74;100.00;98033.25;5061640;28;20216;-61
2021/10/29 02:13:55;;;;;;;35.27;21.60;;;;;;;4.80;100.00;98035.56;5064552;28;20228;-62
2021/10/29 02:16:22;;;;;;;33.60;20.63;;;;;;;4.77;100.00;98033.09;5062083;28;20225;-61
2021/10/29 02:18:48;;;;;;;34.23;21.20;;;;;;;4.78;100.00;98028.72;5060688;28;20237;-62
2021/10/29 02:21:15;;;;;;;32.73;20.83;;;;;;;4.77;100.00;98027.00;5060774;28;20227;-62
2021/10/29 02:23:41;;;;;;;32.87;21.20;;;;;;;4.68;100.00;98033.53;5064069;28;20715;-61
2021/10/29 02:26:08;;;;;;;32.83;21.17;;;;;;;4.62;100.00;98036.44;5062225;28;20738;-62
2021/10/29 02:28:34;;;;;;;34.63;21.77;;;;;;;4.55;100.00;98036.78;5058872;28;20217;-61
2021/10/29 02:31:02;;;;;;;33.67;21.23;;;;;;;4.59;100.00;98031.34;5060369;28;20296;-61
2021/10/29 02:33:29;;;;;;;29.87;18.23;;;;;;;4.54;100.00;98035.97;5051399;28;20240;-61
2021/10/29 02:35:55;;;;;;;24.17;16.63;;;;;;;4.48;100.00;98038.88;5062989;28;20222;-61
2021/10/29 02:38:22;;;;;;;24.43;16.50;;;;;;;4.36;100.00;98047.28;5060136;28;20222;-61
2021/10/29 02:40:49;;;;;;;18.00;13.87;;;;;;;4.26;100.00;98050.38;5060058;28;20218;-61
2021/10/29 02:43:16;;;;;;;18.50;13.33;;;;;;;4.09;100.00;98032.81;5064144;28;20222;-61
2021/10/29 02:45:43;;;;;;;19.37;14.17;;;;;;;4.02;100.00;98031.41;5063190;28;20573;-62
2021/10/29 02:48:11;;;;;;;22.37;14.67;;;;;;;3.99;100.00;98036.78;5060267;28;20576;-61
2021/10/29 02:50:38;;;;;;;22.83;15.37;;;;;;;3.99;100.00;98035.94;5059860;28;20697;-61
2021/10/29 02:53:07;;;;;;;19.60;14.23;;;;;;;3.92;100.00;98037.94;5063237;28;20227;-61
2021/10/29 02:55:34;;;;;;;16.57;12.77;;;;;;;3.87;100.00;98032.09;5060674;28;20642;-61
2021/10/29 02:58:01;;;;;;;20.20;14.20;;;;;;;3.92;100.00;98034.50;5059924;28;20227;-61
2021/10/29 03:00:27;;;;;;;21.93;14.40;;;;;;;3.82;100.00;98026.22;5055019;28;20676;-62
2021/10/29 03:02:54;;;;;;;21.57;15.20;;;;;;;3.81;100.00;98027.16;5063150;28;20212;-61
2021/10/29 03:05:21;;;;;;;17.70;13.17;;;;;;;3.82;100.00;98028.84;5063109;28;20212;-61
2021/10/29 03:07:48;;;;;;;18.30;13.00;;;;;;;3.77;100.00;98030.81;5059471;28;20697;-61
2021/10/29 03:10:15;;;;;;;14.93;11.63;;;;;;;3.74;100.00;98033.53;5059469;28;20729;-61
2021/10/29 03:12:42;;;;;;;18.97;13.00;;;;;;;3.70;100.00;98026.75;5062699;28;20597;-61
2021/10/29 03:15:10;;;;;;;19.53;14.23;;;;;;;3.69;100.00;98025.06;5063006;28;20216;-61
2021/10/29 03:17:37;;;;;;;25.67;16.20;;;;;;;3.63;100.00;98025.34;5059688;28;20213;-61
2021/10/29 03:20:06;;;;;;;21.13;15.40;;;;;;;3.66;100.00;98037.44;5057934;28;20216;-61
2021/10/29 03:22:34;;;;;;;25.13;16.53;;;;;;;3.65;100.00;98030.47;5062637;28;20213;-61
2021/10/29 03:25:01;;;;;;;21.00;13.50;;;;;;;3.63;100.00;98025.34;5062657;28;20240;-61
2021/10/29 03:27:27;;;;;;;18.77;13.17;;;;;;;3.58;100.00;98029.03;5059566;28;20584;-61
2021/10/29 03:29:54;;;;;;;17.87;12.57;;;;;;;3.52;100.00;98030.16;5059569;28;20244;-61
2021/10/29 03:32:22;;;;;;;18.37;13.13;;;;;;;3.40;100.00;98028.06;5062652;28;20224;-61
2021/10/29 03:34:49;;;;;;;23.10;14.93;;;;;;;3.42;100.00;98014.97;5062590;28;20298;-61
2021/10/29 03:37:25;;;;;;;24.60;16.20;;;;;;;3.32;100.00;98027.56;5059194;28;20250;-61
2021/10/29 03:39:58;;;;;;;29.30;18.07;;;;;;;3.35;100.00;98022.19;5059631;28;20210;-62
2021/10/29 03:42:28;;;;;;;30.00;18.00;;;;;;;3.31;100.00;98015.38;5063094;28;20223;-62
2021/10/29 03:44:59;;;;;;;27.30;17.33;;;;;;;3.30;100.00;98008.47;5060458;28;20239;-61
2021/10/29 03:47:29;;;;;;;26.60;16.57;;;;;;;3.30;100.00;98005.03;5051526;28;20213;-62
2021/10/29 03:50:03;;;;;;;22.50;15.63;;;;;;;3.26;100.00;98006.94;5061035;28;20590;-62
2021/10/29 03:52:31;;;;;;;25.57;16.53;;;;;;;3.19;100.00;98009.84;5063035;28;20213;-61
2021/10/29 03:55:05;;;;;;;24.60;15.80;;;;;;;3.19;100.00;98005.47;5059450;28;20217;-61
2021/10/29 03:57:32;;;;;;;21.87;15.37;;;;;;;3.16;100.00;98005.59;5059183;28;20672;-61
2021/10/29 03:59:59;;;;;;;22.90;14.80;;;;;;;3.12;100.00;97997.97;5056319;28;20215;-61
2021/10/29 04:02:25;;;;;;;23.17;15.17;;;;;;;3.12;100.00;98009.25;5062005;28;20294;-61
2021/10/29 04:04:52;;;;;;;22.50;14.50;;;;;;;3.09;100.00;98009.41;5058881;28;20224;-62
2021/10/29 04:07:19;;;;;;;21.47;14.20;;;;;;;3.05;100.00;98017.44;5058972;28;20210;-61
2021/10/29 04:09:45;;;;;;;24.57;15.73;;;;;;;3.02;100.00;98013.19;5065961;28;20606;-62
2021/10/29 04:12:15;;;;;;;28.07;15.63;;;;;;;2.99;100.00;98007.22;5064631;28;20220;-61
2021/10/29 04:14:42;;;;;;;27.83;16.57;;;;;;;3.02;100.00;98012.31;5062792;28;20272;-61
2021/10/29 04:17:09;;;;;;;24.80;15.33;;;;;;;3.05;100.00;98009.59;5063425;28;20292;-62
2021/10/29 04:19:35;;;;;;;25.20;15.90;;;;;;;3.04;100.00;98015.69;5066448;28;20214;-62
2021/10/29 04:22:02;;;;;;;27.37;16.97;;;;;;;3.06;100.00;98019.13;5066149;28;20223;-62
2021/10/29 04:24:29;;;;;;;26.20;17.13;;;;;;;3.09;100.00;98017.22;5062839;28;20219;-62
2021/10/29 04:26:58;;;;;;;29.73;16.93;;;;;;;3.09;100.00;98014.63;5062449;28;20333;-62
2021/10/29 04:29:35;;;;;;;29.97;18.93;;;;;;;3.14;100.00;98027.47;5065844;28;20241;-62
2021/10/29 04:32:02;;;;;;;31.87;18.70;;;;;;;3.17;100.00;98019.53;5064818;28;20294;-62
2021/10/29 04:34:29;;;;;;;30.43;18.77;;;;;;;3.20;100.00;98016.78;5062636;28;20213;-62
2021/10/29 04:36:59;;;;;;;30.40;18.73;;;;;;;3.27;100.00;98013.84;5062670;28;20681;-62
2021/10/29 04:39:26;;;;;;;28.77;18.17;;;;;;;3.28;100.00;98020.75;5064542;28;20269;-62
2021/10/29 04:41:52;;;;;;;28.03;17.93;;;;;;;3.25;100.00;98020.88;5064306;28;20208;-62
2021/10/29 04:44:20;;;;;;;27.73;18.30;;;;;;;3.26;100.00;98009.53;5062273;28;20685;-63
2021/10/29 04:46:48;;;;;;;25.00;16.90;;;;;;;3.24;100.00;98007.91;5062549;28;20216;-63
2021/10/29 04:49:15;;;;;;;26.47;17.40;;;;;;;3.21;100.00;98002.78;5066167;28;20208;-62
2021/10/29 04:51:41;;;;;;;22.53;16.13;;;;;;;3.25;100.00;98002.59;5064472;28;20215;-62
2021/10/29 04:54:08;;;;;;;26.57;17.40;;;;;;;3.23;100.00;97996.59;5062476;28;20580;-63
2021/10/29 04:56:35;;;;;;;27.97;18.70;;;;;;;3.18;100.00;97995.94;5062175;28;20217;-61
2021/10/29 04:59:01;;;;;;;28.70;18.33;;;;;;;3.16;100.00;98000.38;5064540;28;20215;-62
2021/10/29 05:01:27;;;;;;;28.20;18.67;;;;;;;3.06;100.00;97993.84;5062289;28;20219;-62
2021/10/29 05:03:55;;;;;;;29.93;18.43;;;;;;;3.07;100.00;97987.69;5060350;28;20228;-62
2021/10/29 05:06:22;;;;;;;28.47;19.13;;;;;;;3.08;100.00;97991.16;5062263;28;20588;-62
2021/10/29 05:08:48;;;;;;;29.63;18.80;;;;;;;3.02;100.00;97984.47;5065751;28;20211;-62
2021/10/29 05:11:15;;;;;;;26.43;17.80;;;;;;;3.07;100.00;97986.88;5064917;28;20236;-62
2021/10/29 05:13:41;;;;;;;26.23;17.70;;;;;;;3.09;100.00;97977.19;5061686;28;20212;-62
2021/10/29 05:16:08;;;;;;;26.13;17.80;;;;;;;3.15;100.00;97988.25;5062034;28;20223;-62
2021/10/29 05:18:34;;;;;;;23.47;16.17;;;;;;;3.23;100.00;97991.38;5064312;28;20217;-61
2021/10/29 05:21:02;;;;;;;21.50;16.20;;;;;;;3.22;100.00;97989.69;5064734;28;20216;-62
2021/10/29 05:23:29;;;;;;;22.83;15.70;;;;;;;3.27;100.00;97984.25;5061734;28;20223;-61
2021/10/29 05:25:55;;;;;;;24.40;16.20;;;;;;;3.29;100.00;97983.28;5061334;28;20244;-62
2021/10/29 05:28:22;;;;;;;26.53;17.53;;;;;;;3.34;100.00;97981.31;5064199;28;20216;-62
2021/10/29 05:30:48;;;;;;;29.17;19.60;;;;;;;3.41;100.00;97977.53;5063653;28;20332;-63
2021/10/29 05:33:15;;;;;;;24.97;17.20;;;;;;;3.50;100.00;97978.91;5058942;28;20214;-62
2021/10/29 05:35:42;;;;;;;29.00;18.40;;;;;;;3.56;100.00;97974.22;5061703;28;20239;-62
2021/10/29 05:38:09;;;;;;;24.43;17.87;;;;;;;3.61;100.00;97977.50;5063681;28;20213;-62
2021/10/29 05:40:36;;;;;;;26.67;16.97;;;;;;;3.65;100.00;97983.44;5065027;28;20661;-62
2021/10/29 05:43:03;;;;;;;23.70;16.53;;;;;;;3.69;100.00;97985.88;5061385;28;20224;-62
2021/10/29 05:45:29;;;;;;;28.60;18.70;;;;;;;3.71;100.00;97973.56;5061155;28;20214;-60
2021/10/29 05:48:00;;;;;;;26.30;17.90;;;;;;;3.73;100.00;97976.97;5063190;28;20215;-60
2021/10/29 05:50:27;;;;;;;23.37;16.47;;;;;;;3.74;100.00;97968.19;5064969;28;20739;-63
2021/10/29 05:52:54;;;;;;;25.93;17.00;;;;;;;3.71;100.00;97968.34;5061012;28;20235;-63
2021/10/29 05:55:22;;;;;;;24.17;16.97;;;;;;;3.73;100.00;97970.91;5061108;28;20217;-63
2021/10/29 05:57:50;;;;;;;26.17;17.57;;;;;;;3.74;100.00;97976.03;5062239;28;20215;-60
2021/10/29 06:00:18;;;;;;;25.23;16.77;;;;;;;3.76;100.00;97974.22;5064789;28;20214;-62
2021/10/29 06:02:46;;;;;;;25.70;16.97;;;;;;;3.79;100.00;97968.84;5058431;28;20219;-60
2021/10/29 06:05:12;;;;;;;24.80;17.20;;;;;;;3.80;100.00;97972.31;5060894;28;20222;-60
2021/10/29 06:07:39;;;;;;;24.67;17.40;;;;;;;3.79;100.00;97968.00;5063349;28;20212;-60
2021/10/29 06:10:08;;;;;;;26.23;16.50;;;;;;;3.78;100.00;97968.94;5064203;28;20236;-63
2021/10/29 06:12:38;;;;;;;29.70;18.67;;;;;;;3.72;100.00;97969.22;5057944;28;20216;-60
2021/10/29 06:15:05;;;;;;;30.33;18.80;;;;;;;3.64;100.00;97971.28;5060641;28;20213;-60
2021/10/29 06:17:33;;;;;;;27.10;18.30;;;;;;;3.63;100.00;97975.69;5063593;28;20605;-60
2021/10/29 06:20:00;;;;;;;26.10;17.47;;;;;;;3.70;100.00;97982.34;5063870;28;20681;-60
2021/10/29 06:22:28;;;;;;;24.87;16.27;;;;;;;3.68;100.00;97973.69;5058653;28;20218;-60
2021/10/29 06:24:56;;;;;;;23.33;16.77;;;;;;;3.58;100.00;97982.88;5060168;28;20226;-60
2021/10/29 06:30:06;;;;;;;20.23;15.27;;;;;;;3.54;100.00;97976.06;5061351;28;20232;-60
2021/10/29 06:32:32;;;;;;;20.17;15.67;;;;;;;3.53;100.00;97981.34;5059359;28;20219;-62
2021/10/29 06:34:59;;;;;;;20.70;15.37;;;;;;;3.57;100.00;97975.09;5060714;28;20218;-62
2021/10/29 06:37:26;;;;;;;21.70;14.47;;;;;;;3.61;100.00;97977.50;5063684;28;20584;-62
2021/10/29 06:39:53;;;;;;;19.37;14.13;;;;;;;3.68;100.00;97984.16;5061615;28;20268;-63
2021/10/29 06:42:22;;;;;;;19.37;13.97;;;;;;;3.75;100.00;97985.59;5059957;28;20217;-62
2021/10/29 06:44:59;;;;;;;20.80;15.40;;;;;;;3.84;100.00;97985.16;5060593;28;20584;-63
2021/10/29 06:47:40;;;;;;;21.07;14.00;;;;;;;3.95;100.00;97990.78;5063282;28;20216;-63
2021/10/29 07:01:08;;;;;;;20.03;14.67;;;;;;;4.62;100.00;97984.09;5055864;28;20236;-61
2021/10/29 07:41:56;;;;;;;21.80;15.87;;;;;;;5.99;100.00;97983.13;5056738;28;20578;-64
2021/10/29 07:44:28;;;;;;;21.37;15.83;;;;;;;6.11;100.00;97987.72;5066009;28;20298;-64
2021/10/29 07:46:55;;;;;;;21.17;16.37;;;;;;;6.25;100.00;97990.47;5062828;28;20310;-64
2021/10/29 07:49:26;;;;;;;21.30;15.90;;;;;;;6.42;100.00;97986.94;5061349;28;20223;-64
2021/10/29 07:51:55;;;;;;;20.50;15.80;;;;;;;6.53;100.00;97982.75;5042781;28;20254;-64
2021/10/29 07:54:22;;;;;;;18.10;13.90;;;;;;;6.61;100.00;97977.97;5044559;28;20215;-64
2021/10/29 07:56:49;;;;;;;18.17;14.23;;;;;;;6.66;100.00;97981.16;5055929;28;20615;-64
2021/10/29 07:59:16;;;;;;;20.07;15.30;;;;;;;6.74;100.00;97976.34;5056987;28;20204;-64
2021/10/29 08:01:42;;;;;;;18.73;14.20;;;;;;;6.86;100.00;97977.41;5056964;28;20223;-62
2021/10/29 08:04:09;;;;;;;20.87;15.07;;;;;;;6.97;100.00;97978.47;5057403;28;20211;-63
2021/10/29 08:06:35;;;;;;;23.37;16.07;;;;;;;7.11;100.00;97980.31;5057140;28;20680;-65
2021/10/29 08:09:03;;;;;;;20.77;15.30;;;;;;;7.16;100.00;97981.75;5055765;28;20220;-64
2021/10/29 08:11:30;;;;;;;19.87;15.20;;;;;;;7.22;100.00;97976.16;5058067;28;20720;-64
2021/10/29 08:13:56;;;;;;;18.40;14.93;;;;;;;7.36;100.00;97984.06;5057194;28;20223;-64
2021/10/29 08:16:24;;;;;;;18.60;15.20;;;;;;;7.47;100.00;97974.59;5057174;28;20223;-64
2021/10/29 08:18:51;;;;;;;19.83;15.20;;;;;;;7.63;100.00;97977.16;5056810;28;20219;-64
2021/10/29 08:21:17;;;;;;;23.37;16.43;;;;;;;7.74;100.00;97985.25;5058009;28;20217;-62
2021/10/29 08:23:44;;;;;;;21.00;15.80;;;;;;;7.83;100.00;97984.72;5056817;28;20223;-63
2021/10/29 08:26:12;;;;;;;21.13;15.00;;;;;;;7.93;100.00;97996.34;5056965;28;20241;-63
2021/10/29 08:28:40;;;;;;;21.10;15.47;;;;;;;8.01;100.00;98000.22;5057130;28;20223;-63
2021/10/29 08:31:06;;;;;;;18.70;15.00;;;;;;;8.07;100.00;97981.41;5058055;28;20247;-63
2021/10/29 08:33:33;;;;;;;18.23;14.60;;;;;;;8.14;100.00;97990.63;5056609;28;20683;-63
2021/10/29 08:36:01;;;;;;;17.60;14.50;;;;;;;8.15;100.00;97987.06;5054919;28;20271;-62
2021/10/29 08:38:28;;;;;;;20.30;14.97;;;;;;;8.17;100.00;97979.94;5056792;28;20336;-63
2021/10/29 08:40:55;;;;;;;17.60;15.03;;;;;;;8.24;100.00;97981.25;5058242;28;20270;-62
2021/10/29 08:43:22;;;;;;;20.83;15.97;;;;;;;8.37;100.00;97981.31;5043681;28;20220;-66
2021/10/29 08:45:50;;;;;;;18.67;14.67;;;;;;;8.42;100.00;97979.25;5056760;28;20212;-62
2021/10/29 08:48:17;;;;;;;18.33;15.20;;;;;;;8.48;100.00;97973.59;5056671;28;20220;-62
2021/10/29 08:50:44;;;;;;;18.23;15.30;;;;;;;8.49;100.00;97972.66;5057199;28;20241;-62
2021/10/29 08:53:11;;;;;;;17.97;14.27;;;;;;;8.51;100.00;97984.78;5042576;28;20218;-61
2021/10/29 08:55:38;;;;;;;18.00;14.80;;;;;;;8.53;100.00;97982.06;5055903;28;20296;-62
2021/10/29 08:58:07;;;;;;;18.97;14.77;;;;;;;8.53;100.00;97982.06;5056548;28;20220;-62
2021/10/29 09:00:40;;;;;;;16.10;13.50;;;;;;;8.53;100.00;97988.19;5052619;28;20577;-62
2021/10/29 09:03:10;;;;;;;17.50;14.07;;;;;;;8.59;100.00;97976.41;5042213;28;20219;-63
2021/10/29 09:05:45;;;;;;;17.30;13.93;;;;;;;8.62;100.00;97970.97;5055170;28;20216;-62
2021/10/29 09:08:17;;;;;;;18.97;14.43;;;;;;;8.68;100.00;97966.13;5054502;28;20617;-63
2021/10/29 09:11:09;;;;;;;18.50;15.60;;;;;;;8.77;100.00;97962.06;5054290;28;20582;-62
2021/10/29 09:17:05;;;;;;;17.50;14.23;;;;;;;8.99;100.00;97944.75;5056304;28;20252;-63
2021/10/29 09:31:31;;;;;;;19.43;15.33;;;;;;;9.32;100.00;97928.47;5033181;28;20721;-64
2021/10/29 09:34:05;;;;;;;19.10;14.80;;;;;;;9.44;100.00;97940.84;5053710;28;20223;-64
2021/10/29 09:36:35;;;;;;;16.97;13.97;;;;;;;9.50;100.00;97935.16;5042901;28;20642;-65
2021/10/29 09:39:06;;;;;;;19.20;15.60;;;;;;;9.55;100.00;97925.13;5055341;28;20223;-63
2021/10/29 09:41:34;;;;;;;18.33;15.23;;;;;;;9.61;100.00;97932.63;5055419;28;20223;-63
2021/10/29 09:44:05;;;;;;;17.13;14.90;;;;;;;9.70;100.00;97926.69;5055562;28;20213;-66
2021/10/29 09:46:36;;;;;;;16.67;14.40;;;;;;;9.76;100.00;97937.69;5055543;28;20223;-64
2021/10/29 09:49:24;;;;;;;17.93;15.33;;;;;;;9.79;100.00;97931.34;5055415;28;20216;-64
2021/10/29 09:52:08;;;;;;;19.17;15.00;;;;;;;9.83;100.00;97927.53;5055064;28;20243;-64
2021/10/29 09:54:44;;;;;;;18.60;14.67;;;;;;;9.86;100.00;97922.06;5053579;28;20307;-63
2021/10/29 09:57:11;;;;;;;19.47;15.57;;;;;;;9.89;100.00;97933.25;5055359;28;20222;-64
2021/10/29 09:59:38;;;;;;;16.53;14.53;;;;;;;9.96;100.00;97928.38;5054796;28;20713;-64
2021/10/29 10:02:05;;;;;;;17.70;14.67;;;;;;;10.05;100.00;97927.78;5055057;28;20609;-63
2021/10/29 10:04:35;;;;;;;18.77;15.07;;;;;;;10.13;100.00;97930.72;5055298;28;20222;-64
2021/10/29 10:07:02;;;;;;;17.80;14.87;;;;;;;10.23;100.00;97942.31;5053870;28;20219;-63
2021/10/29 10:09:30;;;;;;;19.17;15.03;;;;;;;10.33;100.00;97935.44;5056207;28;20642;-64
2021/10/29 10:11:57;;;;;;;18.13;14.73;;;;;;;10.41;100.00;97933.09;5054882;28;20234;-66
2021/10/29 10:14:25;;;;;;;16.87;14.23;;;;;;;10.43;100.00;97925.88;5054936;28;20220;-64
2021/10/29 10:16:52;;;;;;;16.03;14.33;;;;;;;10.49;100.00;97922.81;5054554;28;20212;-64
2021/10/29 10:19:19;;;;;;;18.10;14.30;;;;;;;10.55;100.00;97927.66;5056351;28;20299;-64
2021/10/29 10:21:54;;;;;;;18.10;14.73;;;;;;;10.58;100.00;97928.28;5053131;28;20216;-64
2021/10/29 10:24:27;;;;;;;17.20;13.90;;;;;;;10.59;100.00;97918.56;5054764;28;20255;-64
2021/10/29 10:27:22;;;;;;;17.43;13.70;;;;;;;10.56;100.00;97918.75;5054605;28;20241;-64
2021/10/29 10:29:57;;;;;;;15.53;13.27;;;;;;;10.54;100.00;97916.25;5043097;28;20225;-64
2021/10/29 10:46:25;;;;;;;16.50;13.83;;;;;;;10.88;100.00;97907.53;5031785;28;20359;-64
2021/10/29 10:49:00;;;;;;;14.77;13.17;;;;;;;11.00;100.00;97913.72;5029769;28;20685;-67
2021/10/29 10:51:35;;;;;;;17.17;14.40;;;;;;;11.07;100.00;97907.03;5042535;28;20249;-64
2021/10/29 10:54:06;;;;;;;15.63;12.43;;;;;;;11.17;100.00;97900.91;5054284;28;20230;-64
2021/10/29 10:56:59;;;;;;;15.50;12.80;;;;;;;11.25;100.00;97895.06;5054531;28;20246;-64
2021/10/29 10:59:41;;;;;;;15.23;12.17;;;;;;;11.34;100.00;97897.84;5044177;28;20211;-64
2021/10/29 11:10:33;;;;;;;15.40;13.03;;;;;;;11.70;100.00;97873.88;5054057;28;20305;-67
2021/10/29 11:13:06;;;;;;;14.33;11.87;;;;;;;11.78;100.00;97875.91;5053241;28;20237;-64
2021/10/29 11:15:32;;;;;;;14.93;12.30;;;;;;;11.93;100.00;97882.69;5053168;28;20221;-64
2021/10/29 11:18:02;;;;;;;14.73;12.63;;;;;;;12.03;100.00;97875.69;5053264;28;20226;-64
2021/10/29 11:20:45;;;;;;;13.67;11.80;;;;;;;12.09;100.00;97872.53;5055015;28;20214;-64
2021/10/29 11:23:13;;;;;;;15.20;12.37;;;;;;;12.22;100.00;97870.63;5052588;28;20305;-64
2021/10/29 11:25:52;;;;;;;14.03;11.93;;;;;;;12.24;100.00;97871.34;5053502;28;20237;-64
2021/10/29 11:28:22;;;;;;;12.97;11.43;;;;;;;12.31;97.40;97859.28;5056851;28;20242;-64
2021/10/29 11:30:49;;;;;;;14.30;11.67;;;;;;;12.38;95.39;97855.16;5064512;28;20226;-64
2021/10/29 11:33:16;;;;;;;13.40;11.80;;;;;;;12.46;94.23;97847.47;5053812;28;20225;-64
2021/10/29 11:35:55;;;;;;;14.57;11.83;;;;;;;12.60;93.77;97844.53;5053243;28;20213;-64
2021/10/29 11:38:22;;;;;;;13.23;11.83;;;;;;;12.70;93.86;97832.16;5053499;28;20222;-64
2021/10/29 11:40:50;;;;;;;13.43;11.10;;;;;;;12.80;92.42;97827.81;5051889;28;20215;-64
2021/10/29 11:43:21;;;;;;;13.27;11.40;;;;;;;12.86;92.39;97835.25;5053534;28;20227;-64
2021/10/29 11:45:48;;;;;;;13.67;11.50;;;;;;;12.91;93.16;97836.53;5054609;28;20219;-64
2021/10/29 11:48:15;;;;;;;12.83;10.83;;;;;;;12.99;93.80;97828.00;5053499;28;20224;-64
2021/10/29 11:50:42;;;;;;;13.13;10.83;;;;;;;13.04;93.39;97817.84;5053370;28;20255;-65
2021/10/29 11:53:10;;;;;;;13.00;11.30;;;;;;;13.14;92.21;97821.41;5053465;28;20246;-64
2021/10/29 11:55:41;;;;;;;15.43;12.23;;;;;;;13.24;93.09;97817.00;5054542;28;20315;-65
2021/10/29 11:58:16;;;;;;;14.00;12.13;;;;;;;13.29;93.84;97815.66;5053384;28;20223;-64
2021/10/29 12:00:51;;;;;;;16.67;12.20;;;;;;;13.34;92.65;97804.63;5051892;28;20689;-64
2021/10/29 12:07:12;;;;;;;15.27;12.43;;;;;;;13.42;91.36;97794.19;5039904;28;20220;-64
2021/10/29 12:09:04;;;;;;;12.97;11.07;;;;;;;13.51;90.88;97788.09;5053101;28;20212;-64
2021/10/29 12:11:31;;;;;;;11.60;9.87;;;;;;;13.56;90.29;97777.94;5054350;28;20236;-65
2021/10/29 12:14:00;;;;;;;10.17;9.10;;;;;;;13.64;89.64;97778.09;5053100;28;20213;-64
2021/10/29 12:16:27;;;;;;;9.50;8.47;;;;;;;13.63;88.26;97768.47;5053022;28;20227;-65
2021/10/29 12:18:58;;;;;;;9.93;8.17;;;;;;;13.70;87.46;97780.22;5052875;28;20262;-65
2021/10/29 12:21:29;;;;;;;11.03;8.93;;;;;;;13.80;87.19;97773.09;5054177;28;20220;-64
2021/10/29 12:23:56;;;;;;;10.67;8.80;;;;;;;13.85;86.63;97757.63;5053162;28;20210;-64
2021/10/29 12:26:23;;;;;;;9.97;7.73;;;;;;;13.91;85.69;97762.38;5053373;28;20249;-66
2021/10/29 12:28:53;;;;;;;9.93;7.97;;;;;;;13.96;86.31;97762.81;5053237;28;20223;-64
2021/10/29 12:31:32;;;;;;;8.50;7.60;;;;;;;13.92;85.52;97769.38;5055694;28;20213;-64
2021/10/29 12:53:31;;;;;;;8.97;7.03;;;;;;;14.14;81.48;97742.59;5045329;28;20248;-64
2021/10/29 12:59:01;;;;;;;6.50;5.80;;;;;;;14.19;81.22;97737.75;5055247;28;20216;-64
2021/10/29 13:01:35;;;;;;;6.83;6.17;;;;;;;14.23;79.43;97739.16;5046546;28;20709;-64
2021/10/29 13:04:06;;;;;;;7.73;6.57;;;;;;;14.33;77.74;97734.66;5055907;28;20220;-64
2021/10/29 13:06:35;;;;;;;8.90;6.43;;;;;;;14.36;79.37;97726.44;5055873;28;20234;-64
2021/10/29 13:09:12;;;;;;;7.77;6.23;;;;;;;14.41;79.29;97727.69;5056162;28;20223;-64
2021/10/29 13:11:43;;;;;;;7.20;6.33;;;;;;;14.47;78.66;97726.28;5056144;28;20271;-65
2021/10/29 13:14:12;;;;;;;8.30;6.67;;;;;;;14.46;77.02;97719.28;5056210;28;20344;-64
2021/10/29 13:16:38;;;;;;;7.50;6.70;;;;;;;14.52;76.52;97721.38;5056632;28;20268;-64
2021/10/29 13:19:20;;;;;;;9.53;7.77;;;;;;;14.72;75.17;97720.41;5055783;28;20219;-65